Terminal Aerodrome Forecast
Issued by NWS

Home | Current Version | Previous Version | Graphics & Text | Print | Product List | Glossary On
Versions: 1 2 3 4 5 6 7 8 9 10 11 12 13 14 15 16 17 18 19 20 21
000
FTUS43 KMPX 251100
TAFRWF
TAF
KRWF 251138Z 2512/2612 29008KT P6SM OVC050
     FM251600 24006KT P6SM BKN035 OVC070
     FM260000 14005KT P6SM SCT020 OVC080
     FM260600 10009KT 4SM -SN OVC020
     FM260800 08007KT 2SM -SN OVC015=

USA.gov is the U.S. government's official web portal to all federal, state and local government web resources and services.